HESC

St Catherine International Airport

Egypt
TAF HESC 212300Z 2200/2306 33015KT CAVOK
Issued Valid From Valid To
Sep-21 @ 23:00 UTC
(5 hours ago)
Sep-22 @ 00:00 UTC
(4 hours ago)
Sep-23 @ 06:00 UTC
(-1 days ago)
to
TAF HESC 212300Z 2200/2306 33015KT CAVOK
Issued Sep-21 @ 23:00 UTC
(5 hours ago)
Valid From Sep-22 @ 00:00 UTC
(4 hours ago)
Valid To Sep-23 @ 06:00 UTC
(-1 days ago)
-